createdAt,value
2018-11-28T00:00:36.787Z,48.43
2018-11-28T00:03:19.246Z,55.03
2018-11-28T00:06:03.426Z,50.03
2018-11-28T00:08:45.322Z,49.60
2018-11-28T00:11:28.776Z,53.13
2018-11-28T00:14:12.211Z,56.77
2018-11-28T00:16:53.875Z,52.63
2018-11-28T00:19:36.306Z,44.97
2018-11-28T00:22:18.220Z,48.47
2018-11-28T00:25:00.732Z,54.23
2018-11-28T00:27:43.135Z,46.90
2018-11-28T00:30:26.306Z,47.00
2018-11-28T00:33:08.052Z,52.87
2018-11-28T00:35:49.734Z,50.70
2018-11-28T00:38:31.623Z,49.33
2018-11-28T00:41:13.849Z,47.13
2018-11-28T00:43:55.535Z,48.43
2018-11-28T00:46:40.424Z,49.67
2018-11-28T00:49:22.504Z,47.87
2018-11-28T00:52:04.934Z,53.57
2018-11-28T00:54:47.673Z,47.47
2018-11-28T00:57:29.778Z,51.53
2018-11-28T01:00:14.222Z,50.60
2018-11-28T01:02:56.584Z,52.30
2018-11-28T01:05:38.923Z,51.47
2018-11-28T01:08:22.640Z,50.23
2018-11-28T01:11:04.901Z,47.67
2018-11-28T01:13:47.323Z,53.87
2018-11-28T01:16:42.929Z,51.43
2018-11-28T01:19:24.902Z,54.77
2018-11-28T01:22:07.282Z,49.87
2018-11-28T01:24:49.678Z,43.73
2018-11-28T01:27:32.087Z,49.57
2018-11-28T01:30:17.392Z,50.80
2018-11-28T01:32:59.794Z,51.60
2018-11-28T01:35:42.211Z,47.07
2018-11-28T01:38:24.834Z,53.90
2018-11-28T01:41:06.960Z,48.93
2018-11-28T01:43:49.307Z,41.47
2018-11-28T01:46:32.099Z,52.33
2018-11-28T01:49:14.052Z,56.70
2018-11-28T01:51:56.580Z,56.90
2018-11-28T01:54:46.439Z,46.27
2018-11-28T01:57:28.363Z,48.73
2018-11-28T02:00:12.388Z,46.40
2018-11-28T02:02:56.432Z,51.80
2018-11-28T02:05:38.816Z,48.20
2018-11-28T02:08:21.409Z,46.53
2018-11-28T02:11:04.376Z,49.53
2018-11-28T02:13:45.958Z,49.87
2018-11-28T02:16:27.964Z,52.77
2018-11-28T02:19:10.358Z,47.37
2018-11-28T02:21:52.582Z,51.30
2018-11-28T02:24:43.727Z,52.07
2018-11-28T02:27:25.379Z,54.87
2018-11-28T02:30:10.856Z,50.97
2018-11-28T02:32:53.361Z,46.87
2018-11-28T02:35:35.779Z,46.67
2018-11-28T02:38:18.399Z,50.00
2018-11-28T02:41:00.368Z,49.83
2018-11-28T02:43:42.760Z,50.20
2018-11-28T02:46:30.730Z,47.50
2018-11-28T02:49:12.834Z,48.67
2018-11-28T02:51:55.203Z,51.30
2018-11-28T02:54:37.477Z,49.60
2018-11-28T02:57:19.994Z,57.47
2018-11-28T03:00:02.417Z,50.70
2018-11-28T03:02:45.422Z,51.07
2018-11-28T03:05:27.406Z,47.80
2018-11-28T03:08:10.373Z,56.57
2018-11-28T03:10:52.323Z,50.60
2018-11-28T03:13:34.725Z,51.47
2018-11-28T03:16:18.426Z,45.57
2018-11-28T03:19:00.805Z,47.43
2018-11-28T03:21:42.359Z,50.57
2018-11-28T03:24:25.240Z,51.20
2018-11-28T03:27:07.138Z,51.57
2018-11-28T03:29:49.562Z,50.80
2018-11-28T03:32:34.300Z,52.27
2018-11-28T03:35:16.684Z,56.00
2018-11-28T03:37:58.986Z,47.57
2018-11-28T03:40:43.651Z,49.67
2018-11-28T03:43:25.474Z,52.57
2018-11-28T03:46:07.390Z,48.90
2018-11-28T03:48:51.037Z,49.07
2018-11-28T03:51:33.119Z,50.70
2018-11-28T03:54:15.552Z,52.90
2018-11-28T03:56:58.268Z,54.60
2018-11-28T03:59:40.510Z,51.93
2018-11-28T04:02:22.992Z,51.93
2018-11-28T04:05:06.246Z,50.33
2018-11-28T04:07:47.899Z,49.53
2018-11-28T04:10:30.356Z,48.17
2018-11-28T04:13:12.812Z,53.10
2018-11-28T04:15:55.298Z,54.00
2018-11-28T04:18:37.803Z,51.20
2018-11-28T04:21:21.545Z,50.10
2018-11-28T04:24:03.806Z,48.33
2018-11-28T04:26:46.052Z,49.47
2018-11-28T04:29:29.838Z,48.50
2018-11-28T04:32:11.775Z,51.83
2018-11-28T04:34:54.723Z,48.13
2018-11-28T04:37:37.523Z,53.83
2018-11-28T04:40:20.840Z,46.83
2018-11-28T04:43:03.700Z,45.40
2018-11-28T04:45:46.206Z,50.17
2018-11-28T04:48:28.036Z,48.70
2018-11-28T04:51:10.424Z,40.97
2018-11-28T04:53:53.187Z,46.67
2018-11-28T04:56:35.828Z,53.87
2018-11-28T04:59:17.824Z,48.77
2018-11-28T05:02:01.217Z,51.20
2018-11-28T05:04:43.622Z,49.03
2018-11-28T05:07:29.414Z,43.77
2018-11-28T05:10:18.164Z,49.63
2018-11-28T05:13:00.587Z,47.67
2018-11-28T05:15:42.934Z,52.70
2018-11-28T05:18:24.721Z,44.60
2018-11-28T05:21:07.149Z,41.97
2018-11-28T05:23:49.672Z,47.90
2018-11-28T05:26:34.102Z,46.73
2018-11-28T05:29:16.286Z,49.90
2018-11-28T05:31:58.840Z,46.40
2018-11-28T05:34:40.987Z,41.93
2018-11-28T05:37:23.486Z,46.33
2018-11-28T05:40:09.085Z,51.63
2018-11-28T05:42:51.264Z,46.40
2018-11-28T05:45:33.603Z,47.97
2018-11-28T05:48:17.569Z,45.10
2018-11-28T05:51:00.290Z,46.10
2018-11-28T05:53:42.683Z,44.73
2018-11-28T05:56:24.778Z,45.63
2018-11-28T05:59:07.368Z,43.40
2018-11-28T06:01:50.662Z,45.37
2018-11-28T06:04:33.243Z,45.63
2018-11-28T06:07:16.382Z,42.60
2018-11-28T06:09:59.106Z,41.57
2018-11-28T06:12:48.887Z,45.63
2018-11-28T06:15:31.589Z,49.13
2018-11-28T06:18:13.384Z,45.33
2018-11-28T06:20:55.713Z,49.70
2018-11-28T06:23:38.410Z,48.43
2018-11-28T06:26:20.822Z,47.37
2018-11-28T06:29:02.953Z,46.10
2018-11-28T06:31:45.371Z,48.47
2018-11-28T06:38:11.690Z,42.50
2018-11-28T06:40:52.825Z,41.03
2018-11-28T06:43:34.142Z,44.70
2018-11-28T06:46:16.046Z,45.07
2018-11-28T06:49:00.517Z,47.40
2018-11-28T06:51:42.486Z,46.87
2018-11-28T06:54:25.405Z,45.33
2018-11-28T06:57:07.267Z,45.63
2018-11-28T06:59:48.594Z,47.40
2018-11-28T07:02:30.266Z,43.03
2018-11-28T07:05:12.652Z,47.73
2018-11-28T07:07:53.724Z,42.00
2018-11-28T07:10:36.481Z,47.47
2018-11-28T07:13:17.844Z,69.47
2018-11-28T07:15:59.014Z,49.53
2018-11-28T07:18:52.802Z,40.83
2018-11-28T07:21:34.937Z,40.07
2018-11-28T07:24:16.322Z,39.87
2018-11-28T07:26:58.091Z,51.80
2018-11-28T07:29:39.262Z,41.60
2018-11-28T07:32:20.615Z,39.47
2018-11-28T07:35:04.698Z,42.53
2018-11-28T07:37:46.509Z,34.47
2018-11-28T07:40:30.228Z,37.93
2018-11-28T07:43:12.541Z,36.67
2018-11-28T07:45:53.713Z,42.60
2018-11-28T07:48:35.600Z,34.07
2018-11-28T07:51:17.428Z,40.13
2018-11-28T07:53:59.002Z,35.23
2018-11-28T07:56:40.687Z,35.17
2018-11-28T07:59:21.853Z,40.20
2018-11-28T08:02:03.256Z,42.23
2018-11-28T08:04:46.054Z,38.03
2018-11-28T08:07:28.077Z,39.90
2018-11-28T08:10:19.293Z,35.23
2018-11-28T08:13:00.631Z,40.23
2018-11-28T08:15:42.648Z,39.97
2018-11-28T08:18:25.726Z,35.33
2018-11-28T08:21:07.807Z,33.90
2018-11-28T08:23:49.404Z,39.60
2018-11-28T08:26:36.331Z,43.57
2018-11-28T08:29:18.932Z,34.10
2018-11-28T08:32:01.022Z,38.10
2018-11-28T08:34:45.168Z,37.17
2018-11-28T08:37:26.336Z,44.13
2018-11-28T08:40:09.815Z,37.97
2018-11-28T08:42:51.305Z,32.83
2018-11-28T08:45:32.545Z,30.97
2018-11-28T08:48:17.806Z,35.47
2018-11-28T08:50:59.634Z,34.90
2018-11-28T08:53:41.580Z,30.60
2018-11-28T08:56:25.414Z,32.97
2018-11-28T08:59:07.433Z,37.37
2018-11-28T09:01:48.786Z,31.23
2018-11-28T09:04:34.457Z,31.63
2018-11-28T09:07:15.714Z,32.53
2018-11-28T09:09:57.199Z,32.97
2018-11-28T09:12:38.935Z,30.23
2018-11-28T09:15:23.913Z,30.77
2018-11-28T09:18:05.763Z,32.43
2018-11-28T09:20:47.443Z,27.40
2018-11-28T09:23:29.394Z,28.07
2018-11-28T09:26:15.338Z,31.67
2018-11-28T09:28:57.341Z,37.47
2018-11-28T09:31:38.986Z,29.70
2018-11-28T09:34:25.213Z,30.83
2018-11-28T09:37:07.597Z,24.73
2018-11-28T09:39:49.410Z,28.20
2018-11-28T09:42:34.418Z,32.53
2018-11-28T09:45:17.175Z,24.47
2018-11-28T09:47:58.876Z,27.77
2018-11-28T09:50:42.555Z,28.47
2018-11-28T09:53:23.707Z,27.07
2018-11-28T09:56:05.162Z,29.67
2018-11-28T09:58:46.774Z,31.27
2018-11-28T10:01:28.083Z,29.40
2018-11-28T10:04:09.284Z,25.33
2018-11-28T10:06:50.649Z,27.67
2018-11-28T10:09:32.353Z,30.13
2018-11-28T10:12:13.828Z,24.90
2018-11-28T10:14:55.712Z,21.77
2018-11-28T10:17:37.227Z,28.33
2018-11-28T10:20:19.246Z,26.93
2018-11-28T10:23:01.029Z,25.13
2018-11-28T10:25:42.444Z,21.80
2018-11-28T10:28:23.810Z,22.33
2018-11-28T10:31:05.436Z,25.50
2018-11-28T10:33:46.519Z,24.40
2018-11-28T10:36:28.057Z,23.03
2018-11-28T10:39:09.657Z,24.73
2018-11-28T10:41:51.901Z,25.43
2018-11-28T10:44:35.223Z,23.63
2018-11-28T10:47:16.581Z,23.70
2018-11-28T10:49:57.920Z,26.90
2018-11-28T10:52:39.954Z,25.03
2018-11-28T10:55:22.667Z,26.93
2018-11-28T10:58:04.755Z,28.17
2018-11-28T11:00:52.474Z,24.73
2018-11-28T11:03:39.307Z,29.40
2018-11-28T11:06:27.014Z,30.53
2018-11-28T11:09:14.578Z,25.17
2018-11-28T11:12:02.302Z,30.23
2018-11-28T11:14:46.764Z,30.67
2018-11-28T11:17:29.227Z,26.17
2018-11-28T11:20:11.107Z,26.53
2018-11-28T11:22:53.238Z,28.97
2018-11-28T11:25:34.405Z,26.33
2018-11-28T11:28:16.408Z,27.90
2018-11-28T11:30:58.490Z,24.53
2018-11-28T11:33:39.675Z,25.87
2018-11-28T11:36:21.834Z,28.00
2018-11-28T11:39:05.121Z,24.23
2018-11-28T11:41:50.038Z,27.97
2018-11-28T11:44:36.574Z,24.23
2018-11-28T11:47:18.202Z,28.10
2018-11-28T11:50:02.025Z,27.60
2018-11-28T11:52:43.911Z,28.63
2018-11-28T11:55:25.276Z,31.10
2018-11-28T11:58:07.143Z,28.63
2018-11-28T12:00:49.573Z,28.33
2018-11-28T12:03:31.591Z,24.93
2018-11-28T12:06:14.954Z,26.50
2018-11-28T12:08:56.261Z,27.67
2018-11-28T12:11:37.683Z,28.97
2018-11-28T12:14:19.195Z,26.17
2018-11-28T12:17:00.616Z,25.47
2018-11-28T12:19:42.398Z,30.40
2018-11-28T12:22:25.232Z,26.10
2018-11-28T12:25:07.373Z,29.30
2018-11-28T12:27:49.654Z,25.43
2018-11-28T12:30:31.263Z,27.57
2018-11-28T12:33:13.779Z,28.03
2018-11-28T12:35:56.714Z,29.67
2018-11-28T12:38:38.122Z,29.10
2018-11-28T12:41:21.650Z,25.43
2018-11-28T12:44:03.030Z,28.07
2018-11-28T12:46:44.394Z,26.07
2018-11-28T12:49:26.306Z,23.63
2018-11-28T12:52:08.421Z,26.37
2018-11-28T12:54:52.562Z,25.23
2018-11-28T12:57:34.351Z,26.07
2018-11-28T13:00:19.301Z,26.13
2018-11-28T13:03:00.974Z,26.37
2018-11-28T13:05:42.421Z,26.80
2018-11-28T13:08:24.202Z,26.87
2018-11-28T13:11:07.102Z,24.03
2018-11-28T13:13:50.482Z,27.20
2018-11-28T13:16:31.991Z,28.50
2018-11-28T13:19:13.286Z,27.90
2018-11-28T13:21:56.079Z,25.13
2018-11-28T13:24:37.182Z,24.77
2018-11-28T13:27:18.833Z,26.63
2018-11-28T13:30:01.500Z,29.33
2018-11-28T13:32:42.910Z,26.93
2018-11-28T13:35:26.000Z,30.07
2018-11-28T13:38:09.599Z,26.57
2018-11-28T13:40:50.958Z,26.87
2018-11-28T13:43:32.923Z,26.77
2018-11-28T13:46:14.894Z,29.83
2018-11-28T13:48:56.289Z,31.30
2018-11-28T13:51:38.214Z,28.00
2018-11-28T13:54:21.878Z,26.13
2018-11-28T13:57:04.505Z,19.50
2018-11-28T13:59:44.509Z,23.43
2018-11-28T14:02:25.597Z,22.17
2018-11-28T14:05:11.565Z,25.73
2018-11-28T14:07:53.572Z,26.97
2018-11-28T14:10:34.939Z,27.60
2018-11-28T14:13:17.216Z,26.30
2018-11-28T14:15:58.725Z,31.03
2018-11-28T14:18:40.238Z,24.87
2018-11-28T14:21:22.129Z,29.37
2018-11-28T14:24:04.127Z,23.47
2018-11-28T14:26:45.441Z,23.83
2018-11-28T14:29:27.437Z,20.03
2018-11-28T14:32:09.327Z,18.53
2018-11-28T14:34:50.773Z,23.30
2018-11-28T14:37:32.550Z,17.60
2018-11-28T14:40:15.430Z,16.93
2018-11-28T14:42:58.021Z,19.47
2018-11-28T14:45:40.287Z,17.87
2018-11-28T14:48:21.833Z,18.10
2018-11-28T14:51:03.477Z,19.90
2018-11-28T14:53:48.009Z,16.60
2018-11-28T14:56:27.513Z,16.33
2018-11-28T14:59:09.785Z,20.77
2018-11-28T15:01:51.916Z,19.37
2018-11-28T15:04:33.786Z,18.00
2018-11-28T15:07:15.109Z,17.23
2018-11-28T15:09:58.339Z,17.87
2018-11-28T15:12:40.684Z,16.33
2018-11-28T15:15:22.362Z,16.57
2018-11-28T15:18:04.403Z,18.13
2018-11-28T15:20:46.267Z,20.73
2018-11-28T15:23:27.698Z,18.13
2018-11-28T15:26:09.548Z,16.23
2018-11-28T15:28:51.453Z,17.40
2018-11-28T15:31:33.101Z,17.50
2018-11-28T15:34:23.285Z,21.23
2018-11-28T15:37:04.681Z,17.87
2018-11-28T15:39:46.154Z,20.57
2018-11-28T15:42:28.118Z,22.80
2018-11-28T15:45:10.011Z,17.33
2018-11-28T15:47:51.170Z,22.23
2018-11-28T15:50:32.983Z,18.67
2018-11-28T15:53:14.881Z,20.97
2018-11-28T15:55:56.358Z,18.80
2018-11-28T15:58:38.663Z,21.57
2018-11-28T16:01:20.144Z,18.67
2018-11-28T16:04:01.499Z,20.70
2018-11-28T16:06:44.185Z,19.10
2018-11-28T16:09:31.711Z,18.23
2018-11-28T16:12:14.462Z,19.90
2018-11-28T16:14:56.367Z,19.17
2018-11-28T16:17:40.617Z,20.73
2018-11-28T16:20:22.019Z,19.07
2018-11-28T16:23:04.900Z,19.47
2018-11-28T16:25:46.538Z,17.77
2018-11-28T16:28:27.871Z,16.47
2018-11-28T16:31:09.721Z,23.80
2018-11-28T16:33:53.599Z,20.57
2018-11-28T16:36:35.160Z,18.43
2018-11-28T16:39:16.791Z,19.90
2018-11-28T16:41:58.752Z,20.63
2018-11-28T16:44:40.942Z,18.00
2018-11-28T16:47:26.098Z,18.13
2018-11-28T16:50:08.854Z,18.90
2018-11-28T16:52:50.430Z,18.83
2018-11-28T16:55:32.282Z,19.87
2018-11-28T16:58:14.342Z,15.73
2018-11-28T17:00:57.071Z,19.63
2018-11-28T17:03:39.151Z,19.90
2018-11-28T17:06:20.620Z,19.23
2018-11-28T17:09:02.010Z,20.37
2018-11-28T17:11:43.599Z,19.03
2018-11-28T17:14:24.801Z,19.40
2018-11-28T17:17:07.241Z,19.67
2018-11-28T17:19:48.514Z,17.70
2018-11-28T17:22:32.604Z,20.17
2018-11-28T17:25:21.122Z,17.63
2018-11-28T17:28:02.774Z,18.80
2018-11-28T17:30:44.429Z,19.33
2018-11-28T17:33:25.641Z,20.17
2018-11-28T17:36:07.179Z,21.43
2018-11-28T17:38:48.609Z,19.97
2018-11-28T17:41:29.733Z,19.23
2018-11-28T17:44:11.247Z,18.27
2018-11-28T17:46:53.027Z,21.43
2018-11-28T17:49:35.090Z,23.97
2018-11-28T17:52:17.404Z,21.20
2018-11-28T17:55:00.722Z,21.10
2018-11-28T17:57:42.053Z,21.13
2018-11-28T18:00:23.882Z,23.33
2018-11-28T18:03:05.844Z,21.17
2018-11-28T18:05:47.406Z,22.53
2018-11-28T18:08:28.754Z,23.37
2018-11-28T18:11:13.630Z,24.30
2018-11-28T18:13:54.701Z,23.97
2018-11-28T18:16:36.296Z,24.33
2018-11-28T18:19:21.127Z,29.00
2018-11-28T18:22:03.174Z,27.13
2018-11-28T18:24:44.544Z,26.47
2018-11-28T18:27:26.323Z,28.93
2018-11-28T18:30:10.338Z,33.10
2018-11-28T18:32:52.681Z,31.73
2018-11-28T18:35:35.618Z,33.70
2018-11-28T18:38:17.841Z,38.80
2018-11-28T18:40:59.025Z,32.00
2018-11-28T18:43:40.692Z,30.63
2018-11-28T18:46:21.802Z,31.40
2018-11-28T18:49:03.279Z,30.00
2018-11-28T18:51:44.851Z,29.07
2018-11-28T18:54:25.995Z,33.40
2018-11-28T18:57:07.461Z,28.93
2018-11-28T18:59:50.631Z,29.93
2018-11-28T19:02:32.107Z,30.80
2018-11-28T19:05:13.704Z,31.93
2018-11-28T19:07:57.323Z,28.43
2018-11-28T19:10:39.418Z,26.73
2018-11-28T19:13:21.396Z,30.80
2018-11-28T19:16:03.603Z,24.87
2018-11-28T19:18:44.671Z,24.03
2018-11-28T19:21:26.136Z,23.50
2018-11-28T19:24:07.831Z,26.67
2018-11-28T19:26:49.002Z,25.37
2018-11-28T19:29:30.288Z,24.70
2018-11-28T19:32:12.348Z,27.87
2018-11-28T19:34:54.355Z,24.63
2018-11-28T19:37:35.666Z,27.53
2018-11-28T19:40:28.905Z,27.00
2018-11-28T19:43:10.607Z,26.23
2018-11-28T19:45:53.666Z,24.57
2018-11-28T19:48:35.443Z,21.27
2018-11-28T19:51:16.885Z,25.93
2018-11-28T19:53:58.806Z,23.07
2018-11-28T19:56:40.726Z,23.83
2018-11-28T19:59:22.160Z,20.97
2018-11-28T20:02:05.445Z,26.83
2018-11-28T20:04:47.785Z,23.10
2018-11-28T20:07:29.380Z,22.17
2018-11-28T20:10:14.422Z,22.20
2018-11-28T20:12:56.286Z,29.77
2018-11-28T20:15:39.850Z,24.53
2018-11-28T20:18:29.239Z,25.90
2018-11-28T20:21:18.763Z,28.87
2018-11-28T20:24:01.145Z,34.33
2018-11-28T20:26:43.686Z,34.67
2018-11-28T20:29:26.085Z,35.93
2018-11-28T20:32:08.138Z,29.00
2018-11-28T20:34:49.675Z,33.37
2018-11-28T20:37:32.589Z,31.33
2018-11-28T20:40:15.638Z,30.80
2018-11-28T20:42:57.403Z,31.90
2018-11-28T20:45:39.532Z,34.90
2018-11-28T20:48:21.128Z,38.97
2018-11-28T20:51:03.646Z,34.83
2018-11-28T20:53:45.956Z,35.10
2018-11-28T20:56:28.647Z,35.23
2018-11-28T20:59:10.796Z,37.23
2018-11-28T21:01:52.841Z,31.77
2018-11-28T21:04:34.694Z,34.80
2018-11-28T21:07:16.732Z,34.77
2018-11-28T21:10:03.227Z,31.90
2018-11-28T21:12:45.171Z,35.43
2018-11-28T21:15:27.307Z,33.60
2018-11-28T21:18:10.530Z,30.23
2018-11-28T21:20:51.918Z,34.93
2018-11-28T21:23:33.267Z,24.13
2018-11-28T21:26:15.247Z,27.67
2018-11-28T21:28:57.116Z,28.50
2018-11-28T21:31:39.518Z,29.50
2018-11-28T21:34:23.286Z,28.53
2018-11-28T21:37:05.377Z,30.07
2018-11-28T21:39:55.819Z,24.77
2018-11-28T21:42:37.235Z,24.17
2018-11-28T21:45:20.278Z,24.67
2018-11-28T21:48:03.061Z,21.33
2018-11-28T21:50:44.210Z,19.47
2018-11-28T21:53:25.978Z,20.13
2018-11-28T21:56:07.539Z,17.60
2018-11-28T21:58:49.573Z,15.87
2018-11-28T22:01:30.998Z,16.00
2018-11-28T22:04:12.846Z,17.83
2018-11-28T22:06:54.882Z,15.90
2018-11-28T22:09:36.285Z,16.27
2018-11-28T22:12:18.346Z,14.00
2018-11-28T22:15:01.921Z,13.93
2018-11-28T22:17:48.256Z,13.67
2018-11-28T22:20:31.758Z,15.57
2018-11-28T22:23:21.128Z,14.40
2018-11-28T22:26:09.449Z,14.07
2018-11-28T22:29:00.466Z,12.23
2018-11-28T22:31:43.694Z,17.60
2018-11-28T22:34:27.906Z,12.87
2018-11-28T22:37:10.986Z,15.93
2018-11-28T22:39:53.863Z,13.30
2018-11-28T22:42:41.824Z,15.03
2018-11-28T22:45:28.292Z,14.13
2018-11-28T22:48:17.425Z,14.03
2018-11-28T22:51:06.321Z,13.23
2018-11-28T22:53:48.078Z,14.50
2018-11-28T22:56:29.458Z,12.57
2018-11-28T22:59:10.793Z,14.33
2018-11-28T23:02:57.161Z,12.00
2018-11-28T23:05:41.746Z,14.57
2018-11-28T23:08:23.106Z,15.27
2018-11-28T23:11:05.330Z,12.53
2018-11-28T23:13:46.930Z,12.83
2018-11-28T23:16:28.381Z,15.07
2018-11-28T23:19:10.222Z,16.13
2018-11-28T23:21:52.110Z,15.97
2018-11-28T23:24:33.546Z,12.50
2018-11-28T23:27:15.608Z,14.60
2018-11-28T23:29:57.402Z,15.17
2018-11-28T23:32:38.758Z,14.00
2018-11-28T23:35:20.550Z,15.77
2018-11-28T23:38:01.631Z,15.37
2018-11-28T23:40:43.205Z,15.17
2018-11-28T23:43:25.158Z,16.80
2018-11-28T23:46:07.158Z,14.13
2018-11-28T23:48:48.341Z,16.17
2018-11-28T23:51:30.118Z,17.40
2018-11-28T23:54:11.234Z,15.83
2018-11-28T23:56:52.586Z,15.83
2018-11-28T23:59:36.935Z,14.77
